Delta, Canada
Current Conditions -  °F | °C
As of 8:00 PM on Sunday 25 Jan 2015 (Local Time) from CYVR Reporting Station
Scattered Clouds Scattered Clouds  
Wind Chill: 45°   Ceiling: Unl
Heat Index: 45°   Visibility: 20mi
Dew Point: 43°   Wind: 2mph
Humidity: 93%   Direction: 130°SE
Pressure: 30.05"   Gusts: NA
Location:  49.09°N, 123.06°W
Report Text: CYVR 260400Z 13002KT 20SM SCT180 07/06 A3005 RMK AS4 SLP175
Loading
Personal Weather Stations






























Interactive Weather Map New forecast layout! Learn more

10-Day Weather Forecast

Advertisements
Track Severe Weather on mobile